sensor_id;sensor_type;location;lat;lon;timestamp;P1;durP1;ratioP1;P2;durP2;ratioP2
45049;SDS011;61798;48.048;-1.928;2024-01-15T00:00:49;34.55;;;14.07;;
45049;SDS011;61798;48.048;-1.928;2024-01-15T00:02:55;33.60;;;14.93;;
45049;SDS011;61798;48.048;-1.928;2024-01-15T00:05:02;36.30;;;15.02;;
45049;SDS011;61798;48.048;-1.928;2024-01-15T00:07:08;33.67;;;16.48;;
45049;SDS011;61798;48.048;-1.928;2024-01-15T00:09:15;31.00;;;15.30;;
45049;SDS011;61798;48.048;-1.928;2024-01-15T00:11:21;33.10;;;15.63;;
45049;SDS011;61798;48.048;-1.928;2024-01-15T00:13:27;38.40;;;16.70;;
45049;SDS011;61798;48.048;-1.928;2024-01-15T00:15:33;45.63;;;21.10;;
45049;SDS011;61798;48.048;-1.928;2024-01-15T00:17:39;34.10;;;16.30;;
45049;SDS011;61798;48.048;-1.928;2024-01-15T00:19:44;37.15;;;17.33;;
45049;SDS011;61798;48.048;-1.928;2024-01-15T00:21:50;35.47;;;17.77;;
45049;SDS011;61798;48.048;-1.928;2024-01-15T00:23:56;36.67;;;16.42;;
45049;SDS011;61798;48.048;-1.928;2024-01-15T00:26:02;34.80;;;15.70;;
45049;SDS011;61798;48.048;-1.928;2024-01-15T00:28:07;32.30;;;14.55;;
45049;SDS011;61798;48.048;-1.928;2024-01-15T00:30:13;37.15;;;15.55;;
45049;SDS011;61798;48.048;-1.928;2024-01-15T00:32:19;32.25;;;15.15;;
45049;SDS011;61798;48.048;-1.928;2024-01-15T00:34:25;35.95;;;15.52;;
45049;SDS011;61798;48.048;-1.928;2024-01-15T00:36:31;31.02;;;15.25;;
45049;SDS011;61798;48.048;-1.928;2024-01-15T00:38:37;33.53;;;14.52;;
45049;SDS011;61798;48.048;-1.928;2024-01-15T00:40:43;35.58;;;14.30;;
45049;SDS011;61798;48.048;-1.928;2024-01-15T00:42:48;35.22;;;15.13;;
45049;SDS011;61798;48.048;-1.928;2024-01-15T00:44:54;34.22;;;15.95;;
45049;SDS011;61798;48.048;-1.928;2024-01-15T00:47:00;37.90;;;15.60;;
45049;SDS011;61798;48.048;-1.928;2024-01-15T00:49:07;31.70;;;14.95;;
45049;SDS011;61798;48.048;-1.928;2024-01-15T00:51:13;34.63;;;14.93;;
45049;SDS011;61798;48.048;-1.928;2024-01-15T00:53:18;30.15;;;12.95;;
45049;SDS011;61798;48.048;-1.928;2024-01-15T00:55:25;32.88;;;14.52;;
45049;SDS011;61798;48.048;-1.928;2024-01-15T00:57:31;38.70;;;15.43;;
45049;SDS011;61798;48.048;-1.928;2024-01-15T00:59:37;49.38;;;17.95;;
45049;SDS011;61798;48.048;-1.928;2024-01-15T01:01:43;59.97;;;20.13;;
45049;SDS011;61798;48.048;-1.928;2024-01-15T01:03:51;51.17;;;20.15;;
45049;SDS011;61798;48.048;-1.928;2024-01-15T01:05:57;49.28;;;18.73;;
45049;SDS011;61798;48.048;-1.928;2024-01-15T01:08:02;42.95;;;17.83;;
45049;SDS011;61798;48.048;-1.928;2024-01-15T01:10:08;44.00;;;17.73;;
45049;SDS011;61798;48.048;-1.928;2024-01-15T01:12:14;36.55;;;13.77;;
45049;SDS011;61798;48.048;-1.928;2024-01-15T01:14:20;34.90;;;15.15;;
45049;SDS011;61798;48.048;-1.928;2024-01-15T01:16:26;33.72;;;14.13;;
45049;SDS011;61798;48.048;-1.928;2024-01-15T01:18:32;29.55;;;13.80;;
45049;SDS011;61798;48.048;-1.928;2024-01-15T01:20:37;24.15;;;11.50;;
45049;SDS011;61798;48.048;-1.928;2024-01-15T01:22:43;28.65;;;12.77;;
45049;SDS011;61798;48.048;-1.928;2024-01-15T01:24:49;26.85;;;12.93;;
45049;SDS011;61798;48.048;-1.928;2024-01-15T01:26:55;33.15;;;15.55;;
45049;SDS011;61798;48.048;-1.928;2024-01-15T01:29:01;26.73;;;12.52;;
45049;SDS011;61798;48.048;-1.928;2024-01-15T01:31:06;32.30;;;13.20;;
45049;SDS011;61798;48.048;-1.928;2024-01-15T01:33:13;31.45;;;12.30;;
45049;SDS011;61798;48.048;-1.928;2024-01-15T01:35:19;30.08;;;12.68;;
45049;SDS011;61798;48.048;-1.928;2024-01-15T01:37:25;27.70;;;12.70;;
45049;SDS011;61798;48.048;-1.928;2024-01-15T01:39:31;26.90;;;12.55;;
45049;SDS011;61798;48.048;-1.928;2024-01-15T01:41:37;27.92;;;12.20;;
45049;SDS011;61798;48.048;-1.928;2024-01-15T01:43:44;29.75;;;14.27;;
45049;SDS011;61798;48.048;-1.928;2024-01-15T01:45:50;27.88;;;13.48;;
45049;SDS011;61798;48.048;-1.928;2024-01-15T01:47:56;26.85;;;12.00;;
45049;SDS011;61798;48.048;-1.928;2024-01-15T01:50:02;23.60;;;11.65;;
45049;SDS011;61798;48.048;-1.928;2024-01-15T01:52:08;24.65;;;11.63;;
45049;SDS011;61798;48.048;-1.928;2024-01-15T01:54:15;27.75;;;12.32;;
45049;SDS011;61798;48.048;-1.928;2024-01-15T01:56:21;26.67;;;12.43;;
45049;SDS011;61798;48.048;-1.928;2024-01-15T01:58:28;23.52;;;11.57;;
45049;SDS011;61798;48.048;-1.928;2024-01-15T02:00:35;26.23;;;11.60;;
45049;SDS011;61798;48.048;-1.928;2024-01-15T02:02:41;25.00;;;11.40;;
45049;SDS011;61798;48.048;-1.928;2024-01-15T02:04:48;24.55;;;11.20;;
45049;SDS011;61798;48.048;-1.928;2024-01-15T02:06:54;25.08;;;11.75;;
45049;SDS011;61798;48.048;-1.928;2024-01-15T02:09:00;25.23;;;11.15;;
45049;SDS011;61798;48.048;-1.928;2024-01-15T02:11:07;28.65;;;11.32;;
45049;SDS011;61798;48.048;-1.928;2024-01-15T02:13:13;25.42;;;11.07;;
45049;SDS011;61798;48.048;-1.928;2024-01-15T02:15:18;23.65;;;11.32;;
45049;SDS011;61798;48.048;-1.928;2024-01-15T02:17:24;24.90;;;11.18;;
45049;SDS011;61798;48.048;-1.928;2024-01-15T02:19:30;28.50;;;11.85;;
45049;SDS011;61798;48.048;-1.928;2024-01-15T02:21:36;23.17;;;10.32;;
45049;SDS011;61798;48.048;-1.928;2024-01-15T02:23:42;24.02;;;10.70;;
45049;SDS011;61798;48.048;-1.928;2024-01-15T02:25:48;22.73;;;10.10;;
45049;SDS011;61798;48.048;-1.928;2024-01-15T02:27:54;25.20;;;11.90;;
45049;SDS011;61798;48.048;-1.928;2024-01-15T02:30:00;22.20;;;10.32;;
45049;SDS011;61798;48.048;-1.928;2024-01-15T02:32:06;21.25;;;9.68;;
45049;SDS011;61798;48.048;-1.928;2024-01-15T02:34:14;23.10;;;10.38;;
45049;SDS011;61798;48.048;-1.928;2024-01-15T02:36:19;20.80;;;9.65;;
45049;SDS011;61798;48.048;-1.928;2024-01-15T02:38:25;22.60;;;10.80;;
45049;SDS011;61798;48.048;-1.928;2024-01-15T02:40:31;23.55;;;9.68;;
45049;SDS011;61798;48.048;-1.928;2024-01-15T02:42:37;21.65;;;9.75;;
45049;SDS011;61798;48.048;-1.928;2024-01-15T02:44:43;21.75;;;10.23;;
45049;SDS011;61798;48.048;-1.928;2024-01-15T02:46:54;20.92;;;10.05;;
45049;SDS011;61798;48.048;-1.928;2024-01-15T02:48:59;24.67;;;9.65;;
45049;SDS011;61798;48.048;-1.928;2024-01-15T02:51:05;18.00;;;9.20;;
45049;SDS011;61798;48.048;-1.928;2024-01-15T02:53:11;19.27;;;9.40;;
45049;SDS011;61798;48.048;-1.928;2024-01-15T02:55:17;18.70;;;8.98;;
45049;SDS011;61798;48.048;-1.928;2024-01-15T02:57:23;18.52;;;9.57;;
45049;SDS011;61798;48.048;-1.928;2024-01-15T02:59:29;19.73;;;9.88;;
45049;SDS011;61798;48.048;-1.928;2024-01-15T03:01:34;19.75;;;8.93;;
45049;SDS011;61798;48.048;-1.928;2024-01-15T03:03:40;19.83;;;8.63;;
45049;SDS011;61798;48.048;-1.928;2024-01-15T03:05:46;18.63;;;9.07;;
45049;SDS011;61798;48.048;-1.928;2024-01-15T03:07:52;17.85;;;9.15;;
45049;SDS011;61798;48.048;-1.928;2024-01-15T03:09:58;19.85;;;10.13;;
45049;SDS011;61798;48.048;-1.928;2024-01-15T03:12:04;19.23;;;9.88;;
45049;SDS011;61798;48.048;-1.928;2024-01-15T03:14:10;19.10;;;9.95;;
45049;SDS011;61798;48.048;-1.928;2024-01-15T03:16:16;19.10;;;10.15;;
45049;SDS011;61798;48.048;-1.928;2024-01-15T03:18:22;18.83;;;9.45;;
45049;SDS011;61798;48.048;-1.928;2024-01-15T03:20:27;20.92;;;9.90;;
45049;SDS011;61798;48.048;-1.928;2024-01-15T03:22:33;17.75;;;9.20;;
45049;SDS011;61798;48.048;-1.928;2024-01-15T03:24:39;18.73;;;8.65;;
45049;SDS011;61798;48.048;-1.928;2024-01-15T03:26:45;24.70;;;10.10;;
45049;SDS011;61798;48.048;-1.928;2024-01-15T03:28:51;21.88;;;9.80;;
45049;SDS011;61798;48.048;-1.928;2024-01-15T03:30:57;17.45;;;9.35;;
45049;SDS011;61798;48.048;-1.928;2024-01-15T03:33:03;17.80;;;9.50;;
45049;SDS011;61798;48.048;-1.928;2024-01-15T03:35:08;18.80;;;9.43;;
45049;SDS011;61798;48.048;-1.928;2024-01-15T03:37:14;18.45;;;9.00;;
45049;SDS011;61798;48.048;-1.928;2024-01-15T03:39:20;21.15;;;9.35;;
45049;SDS011;61798;48.048;-1.928;2024-01-15T03:41:26;19.60;;;9.18;;
45049;SDS011;61798;48.048;-1.928;2024-01-15T03:43:32;17.77;;;8.82;;
45049;SDS011;61798;48.048;-1.928;2024-01-15T03:45:37;19.10;;;9.65;;
45049;SDS011;61798;48.048;-1.928;2024-01-15T03:47:43;20.73;;;9.73;;
45049;SDS011;61798;48.048;-1.928;2024-01-15T03:49:49;19.92;;;9.02;;
45049;SDS011;61798;48.048;-1.928;2024-01-15T03:51:55;17.25;;;8.60;;
45049;SDS011;61798;48.048;-1.928;2024-01-15T03:54:01;17.10;;;8.80;;
45049;SDS011;61798;48.048;-1.928;2024-01-15T03:56:07;18.63;;;8.88;;
45049;SDS011;61798;48.048;-1.928;2024-01-15T03:58:12;23.23;;;9.38;;
45049;SDS011;61798;48.048;-1.928;2024-01-15T04:00:20;18.15;;;9.02;;
45049;SDS011;61798;48.048;-1.928;2024-01-15T04:02:26;15.55;;;8.48;;
45049;SDS011;61798;48.048;-1.928;2024-01-15T04:04:32;21.60;;;10.07;;
45049;SDS011;61798;48.048;-1.928;2024-01-15T04:06:37;19.13;;;8.70;;
45049;SDS011;61798;48.048;-1.928;2024-01-15T04:08:43;19.70;;;9.75;;
45049;SDS011;61798;48.048;-1.928;2024-01-15T04:10:49;22.73;;;10.40;;
45049;SDS011;61798;48.048;-1.928;2024-01-15T04:12:55;21.55;;;9.85;;
45049;SDS011;61798;48.048;-1.928;2024-01-15T04:15:00;18.33;;;10.02;;
45049;SDS011;61798;48.048;-1.928;2024-01-15T04:17:06;19.00;;;8.80;;
45049;SDS011;61798;48.048;-1.928;2024-01-15T04:19:12;19.10;;;8.70;;
45049;SDS011;61798;48.048;-1.928;2024-01-15T04:21:18;17.55;;;8.77;;
45049;SDS011;61798;48.048;-1.928;2024-01-15T04:23:24;19.63;;;9.13;;
45049;SDS011;61798;48.048;-1.928;2024-01-15T04:25:30;17.42;;;8.50;;
45049;SDS011;61798;48.048;-1.928;2024-01-15T04:27:36;19.75;;;8.90;;
45049;SDS011;61798;48.048;-1.928;2024-01-15T04:29:41;17.80;;;9.32;;
45049;SDS011;61798;48.048;-1.928;2024-01-15T04:31:49;16.75;;;8.90;;
45049;SDS011;61798;48.048;-1.928;2024-01-15T04:33:55;18.52;;;9.07;;
45049;SDS011;61798;48.048;-1.928;2024-01-15T04:36:02;15.90;;;8.68;;
45049;SDS011;61798;48.048;-1.928;2024-01-15T04:38:09;20.90;;;9.05;;
45049;SDS011;61798;48.048;-1.928;2024-01-15T04:40:15;18.98;;;9.02;;
45049;SDS011;61798;48.048;-1.928;2024-01-15T04:42:21;15.88;;;8.68;;
45049;SDS011;61798;48.048;-1.928;2024-01-15T04:44:27;16.73;;;8.35;;
45049;SDS011;61798;48.048;-1.928;2024-01-15T04:46:32;16.73;;;8.70;;
45049;SDS011;61798;48.048;-1.928;2024-01-15T04:48:38;15.77;;;7.55;;
45049;SDS011;61798;48.048;-1.928;2024-01-15T04:50:44;16.45;;;8.45;;
45049;SDS011;61798;48.048;-1.928;2024-01-15T04:52:50;15.95;;;7.47;;
45049;SDS011;61798;48.048;-1.928;2024-01-15T04:54:56;15.68;;;7.93;;
45049;SDS011;61798;48.048;-1.928;2024-01-15T04:57:02;15.32;;;7.90;;
45049;SDS011;61798;48.048;-1.928;2024-01-15T04:59:07;16.25;;;8.63;;
45049;SDS011;61798;48.048;-1.928;2024-01-15T05:01:15;19.48;;;9.32;;
45049;SDS011;61798;48.048;-1.928;2024-01-15T05:03:21;16.30;;;8.48;;
45049;SDS011;61798;48.048;-1.928;2024-01-15T05:05:27;18.27;;;8.20;;
45049;SDS011;61798;48.048;-1.928;2024-01-15T05:07:33;15.30;;;7.80;;
45049;SDS011;61798;48.048;-1.928;2024-01-15T05:09:39;18.25;;;8.63;;
45049;SDS011;61798;48.048;-1.928;2024-01-15T05:11:45;20.67;;;8.20;;
45049;SDS011;61798;48.048;-1.928;2024-01-15T05:13:51;18.88;;;8.23;;
45049;SDS011;61798;48.048;-1.928;2024-01-15T05:15:56;14.43;;;7.70;;
45049;SDS011;61798;48.048;-1.928;2024-01-15T05:18:02;15.02;;;7.78;;
45049;SDS011;61798;48.048;-1.928;2024-01-15T05:20:08;14.48;;;7.78;;
45049;SDS011;61798;48.048;-1.928;2024-01-15T05:22:15;18.90;;;8.68;;
45049;SDS011;61798;48.048;-1.928;2024-01-15T05:24:20;14.05;;;7.32;;
45049;SDS011;61798;48.048;-1.928;2024-01-15T05:26:26;18.50;;;7.97;;
45049;SDS011;61798;48.048;-1.928;2024-01-15T05:28:32;20.02;;;9.63;;
45049;SDS011;61798;48.048;-1.928;2024-01-15T05:30:38;38.08;;;17.00;;
45049;SDS011;61798;48.048;-1.928;2024-01-15T05:32:44;40.03;;;17.02;;
45049;SDS011;61798;48.048;-1.928;2024-01-15T05:34:49;40.63;;;17.95;;
45049;SDS011;61798;48.048;-1.928;2024-01-15T05:36:55;26.55;;;13.13;;
45049;SDS011;61798;48.048;-1.928;2024-01-15T05:39:01;18.80;;;9.40;;
45049;SDS011;61798;48.048;-1.928;2024-01-15T05:41:07;19.40;;;8.75;;
45049;SDS011;61798;48.048;-1.928;2024-01-15T05:43:13;17.05;;;8.35;;
45049;SDS011;61798;48.048;-1.928;2024-01-15T05:45:19;15.20;;;8.20;;
45049;SDS011;61798;48.048;-1.928;2024-01-15T05:47:25;16.63;;;7.75;;
45049;SDS011;61798;48.048;-1.928;2024-01-15T05:49:31;14.25;;;8.15;;
45049;SDS011;61798;48.048;-1.928;2024-01-15T05:51:36;15.25;;;7.43;;
45049;SDS011;61798;48.048;-1.928;2024-01-15T05:53:42;15.07;;;7.65;;
45049;SDS011;61798;48.048;-1.928;2024-01-15T05:55:49;15.27;;;7.47;;
45049;SDS011;61798;48.048;-1.928;2024-01-15T05:57:55;17.73;;;8.15;;
45049;SDS011;61798;48.048;-1.928;2024-01-15T06:00:01;14.32;;;7.40;;
45049;SDS011;61798;48.048;-1.928;2024-01-15T06:02:07;17.35;;;7.80;;
45049;SDS011;61798;48.048;-1.928;2024-01-15T06:04:12;15.60;;;7.80;;
45049;SDS011;61798;48.048;-1.928;2024-01-15T06:06:18;16.85;;;7.65;;
45049;SDS011;61798;48.048;-1.928;2024-01-15T06:08:24;15.32;;;8.38;;
45049;SDS011;61798;48.048;-1.928;2024-01-15T06:10:32;16.88;;;7.60;;
45049;SDS011;61798;48.048;-1.928;2024-01-15T06:12:37;14.80;;;7.70;;
45049;SDS011;61798;48.048;-1.928;2024-01-15T06:14:43;13.98;;;7.28;;
45049;SDS011;61798;48.048;-1.928;2024-01-15T06:16:49;16.40;;;8.75;;
45049;SDS011;61798;48.048;-1.928;2024-01-15T06:18:55;17.20;;;7.95;;
45049;SDS011;61798;48.048;-1.928;2024-01-15T06:21:01;16.38;;;8.57;;
45049;SDS011;61798;48.048;-1.928;2024-01-15T06:23:06;16.83;;;7.85;;
45049;SDS011;61798;48.048;-1.928;2024-01-15T06:25:12;15.18;;;8.25;;
45049;SDS011;61798;48.048;-1.928;2024-01-15T06:27:18;18.00;;;8.18;;
45049;SDS011;61798;48.048;-1.928;2024-01-15T06:29:25;18.60;;;8.45;;
45049;SDS011;61798;48.048;-1.928;2024-01-15T06:31:32;17.13;;;7.70;;
45049;SDS011;61798;48.048;-1.928;2024-01-15T06:33:38;14.07;;;7.50;;
45049;SDS011;61798;48.048;-1.928;2024-01-15T06:35:44;15.73;;;7.72;;
45049;SDS011;61798;48.048;-1.928;2024-01-15T06:37:50;17.33;;;7.82;;
45049;SDS011;61798;48.048;-1.928;2024-01-15T06:39:56;15.88;;;7.43;;
45049;SDS011;61798;48.048;-1.928;2024-01-15T06:42:02;17.75;;;7.60;;
45049;SDS011;61798;48.048;-1.928;2024-01-15T06:44:08;16.88;;;8.38;;
45049;SDS011;61798;48.048;-1.928;2024-01-15T06:46:21;16.20;;;7.63;;
45049;SDS011;61798;48.048;-1.928;2024-01-15T06:48:27;16.98;;;7.93;;
45049;SDS011;61798;48.048;-1.928;2024-01-15T06:50:33;14.98;;;6.80;;
45049;SDS011;61798;48.048;-1.928;2024-01-15T06:52:39;15.70;;;7.75;;
45049;SDS011;61798;48.048;-1.928;2024-01-15T06:54:45;24.75;;;10.15;;
45049;SDS011;61798;48.048;-1.928;2024-01-15T06:56:50;21.00;;;9.23;;
45049;SDS011;61798;48.048;-1.928;2024-01-15T06:58:56;21.20;;;11.88;;
45049;SDS011;61798;48.048;-1.928;2024-01-15T07:01:02;21.17;;;12.75;;
45049;SDS011;61798;48.048;-1.928;2024-01-15T07:03:10;26.80;;;15.77;;
45049;SDS011;61798;48.048;-1.928;2024-01-15T07:05:15;28.40;;;15.63;;
45049;SDS011;61798;48.048;-1.928;2024-01-15T07:07:21;17.25;;;9.85;;
45049;SDS011;61798;48.048;-1.928;2024-01-15T07:09:27;46.75;;;22.77;;
45049;SDS011;61798;48.048;-1.928;2024-01-15T07:11:33;53.22;;;27.13;;
45049;SDS011;61798;48.048;-1.928;2024-01-15T07:13:39;56.78;;;30.92;;
45049;SDS011;61798;48.048;-1.928;2024-01-15T07:15:44;20.20;;;10.45;;
45049;SDS011;61798;48.048;-1.928;2024-01-15T07:17:50;22.40;;;12.27;;
45049;SDS011;61798;48.048;-1.928;2024-01-15T07:19:56;21.63;;;11.55;;
45049;SDS011;61798;48.048;-1.928;2024-01-15T07:22:02;19.90;;;10.88;;
45049;SDS011;61798;48.048;-1.928;2024-01-15T07:24:08;22.73;;;11.90;;
45049;SDS011;61798;48.048;-1.928;2024-01-15T07:26:15;18.63;;;10.27;;
45049;SDS011;61798;48.048;-1.928;2024-01-15T07:28:20;22.40;;;11.98;;
45049;SDS011;61798;48.048;-1.928;2024-01-15T07:30:26;21.70;;;10.95;;
45049;SDS011;61798;48.048;-1.928;2024-01-15T07:32:32;21.85;;;10.57;;
45049;SDS011;61798;48.048;-1.928;2024-01-15T07:34:38;17.40;;;9.60;;
45049;SDS011;61798;48.048;-1.928;2024-01-15T07:36:44;20.00;;;8.45;;
45049;SDS011;61798;48.048;-1.928;2024-01-15T07:38:51;19.92;;;9.07;;
45049;SDS011;61798;48.048;-1.928;2024-01-15T07:40:57;24.05;;;9.43;;
45049;SDS011;61798;48.048;-1.928;2024-01-15T07:43:03;14.82;;;8.18;;
45049;SDS011;61798;48.048;-1.928;2024-01-15T07:45:10;21.52;;;9.88;;
45049;SDS011;61798;48.048;-1.928;2024-01-15T07:47:16;14.05;;;7.55;;
45049;SDS011;61798;48.048;-1.928;2024-01-15T07:49:22;13.93;;;7.68;;
45049;SDS011;61798;48.048;-1.928;2024-01-15T07:51:29;14.80;;;6.95;;
45049;SDS011;61798;48.048;-1.928;2024-01-15T07:53:34;12.70;;;6.50;;
45049;SDS011;61798;48.048;-1.928;2024-01-15T07:55:40;13.85;;;6.90;;
45049;SDS011;61798;48.048;-1.928;2024-01-15T07:57:46;13.70;;;7.00;;
45049;SDS011;61798;48.048;-1.928;2024-01-15T07:59:52;15.05;;;6.97;;
45049;SDS011;61798;48.048;-1.928;2024-01-15T08:01:59;22.77;;;9.23;;
45049;SDS011;61798;48.048;-1.928;2024-01-15T08:04:05;26.50;;;9.13;;
45049;SDS011;61798;48.048;-1.928;2024-01-15T08:06:10;16.08;;;7.22;;
45049;SDS011;61798;48.048;-1.928;2024-01-15T08:08:16;15.43;;;7.88;;
45049;SDS011;61798;48.048;-1.928;2024-01-15T08:10:22;16.20;;;7.80;;
45049;SDS011;61798;48.048;-1.928;2024-01-15T08:12:28;13.70;;;7.32;;
45049;SDS011;61798;48.048;-1.928;2024-01-15T08:14:34;15.98;;;7.57;;
45049;SDS011;61798;48.048;-1.928;2024-01-15T08:16:40;14.23;;;7.18;;
45049;SDS011;61798;48.048;-1.928;2024-01-15T08:18:46;13.45;;;7.20;;
45049;SDS011;61798;48.048;-1.928;2024-01-15T08:20:53;16.05;;;7.50;;
45049;SDS011;61798;48.048;-1.928;2024-01-15T08:22:59;29.17;;;10.05;;
45049;SDS011;61798;48.048;-1.928;2024-01-15T08:25:05;29.73;;;11.35;;
45049;SDS011;61798;48.048;-1.928;2024-01-15T08:27:11;23.17;;;10.65;;
45049;SDS011;61798;48.048;-1.928;2024-01-15T08:29:17;26.65;;;11.00;;
45049;SDS011;61798;48.048;-1.928;2024-01-15T08:31:26;31.17;;;12.45;;
45049;SDS011;61798;48.048;-1.928;2024-01-15T08:33:32;22.90;;;10.82;;
45049;SDS011;61798;48.048;-1.928;2024-01-15T08:35:38;22.92;;;9.70;;
45049;SDS011;61798;48.048;-1.928;2024-01-15T08:37:44;27.10;;;11.82;;
45049;SDS011;61798;48.048;-1.928;2024-01-15T08:39:50;16.95;;;9.07;;
45049;SDS011;61798;48.048;-1.928;2024-01-15T08:41:55;18.48;;;8.98;;
45049;SDS011;61798;48.048;-1.928;2024-01-15T08:44:01;16.30;;;8.77;;
45049;SDS011;61798;48.048;-1.928;2024-01-15T08:46:08;21.48;;;10.23;;
45049;SDS011;61798;48.048;-1.928;2024-01-15T08:48:14;20.50;;;9.93;;
45049;SDS011;61798;48.048;-1.928;2024-01-15T08:50:19;18.98;;;10.00;;
45049;SDS011;61798;48.048;-1.928;2024-01-15T08:52:26;31.23;;;13.75;;
45049;SDS011;61798;48.048;-1.928;2024-01-15T08:54:32;35.53;;;16.58;;
45049;SDS011;61798;48.048;-1.928;2024-01-15T08:56:38;31.35;;;15.10;;
45049;SDS011;61798;48.048;-1.928;2024-01-15T08:58:45;26.13;;;12.73;;
45049;SDS011;61798;48.048;-1.928;2024-01-15T09:00:51;82.03;;;45.28;;
45049;SDS011;61798;48.048;-1.928;2024-01-15T09:02:57;49.63;;;27.73;;
45049;SDS011;61798;48.048;-1.928;2024-01-15T09:05:03;36.33;;;15.48;;
45049;SDS011;61798;48.048;-1.928;2024-01-15T09:07:09;31.35;;;14.98;;
45049;SDS011;61798;48.048;-1.928;2024-01-15T09:09:15;24.67;;;11.23;;
45049;SDS011;61798;48.048;-1.928;2024-01-15T09:11:21;20.40;;;11.38;;
45049;SDS011;61798;48.048;-1.928;2024-01-15T09:13:27;24.50;;;13.07;;
45049;SDS011;61798;48.048;-1.928;2024-01-15T09:15:33;23.67;;;11.73;;
45049;SDS011;61798;48.048;-1.928;2024-01-15T09:17:39;23.05;;;12.60;;
45049;SDS011;61798;48.048;-1.928;2024-01-15T09:19:45;27.90;;;14.27;;
45049;SDS011;61798;48.048;-1.928;2024-01-15T09:21:51;23.08;;;12.40;;
45049;SDS011;61798;48.048;-1.928;2024-01-15T09:23:57;24.77;;;12.73;;
45049;SDS011;61798;48.048;-1.928;2024-01-15T09:26:03;23.95;;;11.32;;
45049;SDS011;61798;48.048;-1.928;2024-01-15T09:28:09;21.90;;;11.57;;
45049;SDS011;61798;48.048;-1.928;2024-01-15T09:30:15;21.88;;;11.07;;
45049;SDS011;61798;48.048;-1.928;2024-01-15T09:32:22;26.88;;;12.27;;
45049;SDS011;61798;48.048;-1.928;2024-01-15T09:34:28;21.80;;;10.45;;
45049;SDS011;61798;48.048;-1.928;2024-01-15T09:36:38;20.80;;;10.63;;
45049;SDS011;61798;48.048;-1.928;2024-01-15T09:38:46;21.77;;;10.77;;
45049;SDS011;61798;48.048;-1.928;2024-01-15T09:40:52;20.00;;;10.65;;
45049;SDS011;61798;48.048;-1.928;2024-01-15T09:42:58;18.70;;;9.07;;
45049;SDS011;61798;48.048;-1.928;2024-01-15T09:45:05;27.02;;;11.10;;
45049;SDS011;61798;48.048;-1.928;2024-01-15T09:47:11;20.80;;;9.77;;
45049;SDS011;61798;48.048;-1.928;2024-01-15T09:49:18;21.23;;;10.10;;
45049;SDS011;61798;48.048;-1.928;2024-01-15T09:51:24;26.95;;;11.40;;
45049;SDS011;61798;48.048;-1.928;2024-01-15T09:53:30;22.20;;;11.68;;
45049;SDS011;61798;48.048;-1.928;2024-01-15T09:55:37;22.95;;;9.77;;
45049;SDS011;61798;48.048;-1.928;2024-01-15T09:57:46;30.33;;;11.73;;
45049;SDS011;61798;48.048;-1.928;2024-01-15T09:59:52;25.13;;;10.60;;
45049;SDS011;61798;48.048;-1.928;2024-01-15T10:02:00;23.83;;;10.77;;
45049;SDS011;61798;48.048;-1.928;2024-01-15T10:04:08;20.40;;;10.07;;
45049;SDS011;61798;48.048;-1.928;2024-01-15T10:06:17;20.80;;;9.20;;
45049;SDS011;61798;48.048;-1.928;2024-01-15T10:08:23;23.35;;;10.23;;
45049;SDS011;61798;48.048;-1.928;2024-01-15T10:10:30;19.95;;;9.20;;
45049;SDS011;61798;48.048;-1.928;2024-01-15T10:12:36;23.38;;;9.30;;
45049;SDS011;61798;48.048;-1.928;2024-01-15T10:14:44;21.40;;;9.60;;
45049;SDS011;61798;48.048;-1.928;2024-01-15T10:16:50;14.02;;;7.28;;
45049;SDS011;61798;48.048;-1.928;2024-01-15T10:18:56;17.38;;;7.32;;
45049;SDS011;61798;48.048;-1.928;2024-01-15T10:21:02;13.45;;;6.65;;
45049;SDS011;61798;48.048;-1.928;2024-01-15T10:23:09;19.70;;;8.00;;
45049;SDS011;61798;48.048;-1.928;2024-01-15T10:25:15;19.23;;;7.07;;
45049;SDS011;61798;48.048;-1.928;2024-01-15T10:27:21;16.00;;;6.85;;
45049;SDS011;61798;48.048;-1.928;2024-01-15T10:29:27;16.17;;;6.72;;
45049;SDS011;61798;48.048;-1.928;2024-01-15T10:31:33;13.32;;;6.80;;
45049;SDS011;61798;48.048;-1.928;2024-01-15T10:33:39;16.10;;;6.00;;
45049;SDS011;61798;48.048;-1.928;2024-01-15T10:35:45;10.98;;;5.50;;
45049;SDS011;61798;48.048;-1.928;2024-01-15T10:37:51;16.27;;;6.28;;
45049;SDS011;61798;48.048;-1.928;2024-01-15T10:40:09;20.75;;;7.00;;
45049;SDS011;61798;48.048;-1.928;2024-01-15T10:42:16;19.65;;;7.28;;
45049;SDS011;61798;48.048;-1.928;2024-01-15T10:44:23;24.45;;;7.72;;
45049;SDS011;61798;48.048;-1.928;2024-01-15T10:46:29;11.93;;;5.78;;
45049;SDS011;61798;48.048;-1.928;2024-01-15T10:48:36;14.93;;;6.88;;
45049;SDS011;61798;48.048;-1.928;2024-01-15T10:50:42;11.40;;;5.88;;
45049;SDS011;61798;48.048;-1.928;2024-01-15T10:52:48;10.73;;;5.30;;
45049;SDS011;61798;48.048;-1.928;2024-01-15T10:54:55;12.60;;;5.28;;
45049;SDS011;61798;48.048;-1.928;2024-01-15T10:57:01;17.05;;;5.45;;
45049;SDS011;61798;48.048;-1.928;2024-01-15T10:59:08;9.63;;;5.10;;
45049;SDS011;61798;48.048;-1.928;2024-01-15T11:01:16;12.68;;;5.18;;
45049;SDS011;61798;48.048;-1.928;2024-01-15T11:03:23;10.55;;;4.70;;
45049;SDS011;61798;48.048;-1.928;2024-01-15T11:05:30;12.07;;;5.45;;
45049;SDS011;61798;48.048;-1.928;2024-01-15T11:07:39;12.75;;;4.97;;
45049;SDS011;61798;48.048;-1.928;2024-01-15T11:09:46;10.57;;;4.63;;
45049;SDS011;61798;48.048;-1.928;2024-01-15T11:11:53;8.32;;;4.50;;
45049;SDS011;61798;48.048;-1.928;2024-01-15T11:16:53;11.40;;;5.40;;
45049;SDS011;61798;48.048;-1.928;2024-01-15T11:19:05;10.05;;;4.97;;
45049;SDS011;61798;48.048;-1.928;2024-01-15T11:25:54;10.55;;;4.13;;
45049;SDS011;61798;48.048;-1.928;2024-01-15T11:28:00;10.70;;;4.45;;
45049;SDS011;61798;48.048;-1.928;2024-01-15T11:30:09;14.25;;;6.10;;
45049;SDS011;61798;48.048;-1.928;2024-01-15T11:32:17;15.18;;;7.15;;
45049;SDS011;61798;48.048;-1.928;2024-01-15T11:37:03;9.82;;;5.25;;
45049;SDS011;61798;48.048;-1.928;2024-01-15T11:41:33;9.25;;;3.90;;
45049;SDS011;61798;48.048;-1.928;2024-01-15T11:43:39;11.45;;;5.43;;
45049;SDS011;61798;48.048;-1.928;2024-01-15T11:45:45;14.95;;;5.78;;
45049;SDS011;61798;48.048;-1.928;2024-01-15T11:50:12;4.93;;;3.08;;
45049;SDS011;61798;48.048;-1.928;2024-01-15T11:52:18;11.18;;;4.47;;
45049;SDS011;61798;48.048;-1.928;2024-01-15T11:54:26;14.25;;;6.90;;
45049;SDS011;61798;48.048;-1.928;2024-01-15T11:56:39;20.05;;;9.88;;
45049;SDS011;61798;48.048;-1.928;2024-01-15T11:58:45;9.27;;;4.15;;
45049;SDS011;61798;48.048;-1.928;2024-01-15T12:00:51;9.45;;;4.72;;
45049;SDS011;61798;48.048;-1.928;2024-01-15T12:02:58;7.80;;;3.35;;
45049;SDS011;61798;48.048;-1.928;2024-01-15T12:05:04;7.38;;;3.13;;
45049;SDS011;61798;48.048;-1.928;2024-01-15T12:07:10;10.40;;;4.13;;
45049;SDS011;61798;48.048;-1.928;2024-01-15T12:09:19;12.77;;;3.97;;
45049;SDS011;61798;48.048;-1.928;2024-01-15T12:11:24;6.80;;;3.35;;
45049;SDS011;61798;48.048;-1.928;2024-01-15T12:13:33;8.57;;;3.72;;
45049;SDS011;61798;48.048;-1.928;2024-01-15T12:15:39;8.45;;;4.05;;
45049;SDS011;61798;48.048;-1.928;2024-01-15T12:17:49;8.10;;;4.00;;
45049;SDS011;61798;48.048;-1.928;2024-01-15T12:19:56;9.50;;;3.72;;
45049;SDS011;61798;48.048;-1.928;2024-01-15T12:22:02;5.53;;;3.33;;
45049;SDS011;61798;48.048;-1.928;2024-01-15T12:24:08;7.05;;;3.42;;
45049;SDS011;61798;48.048;-1.928;2024-01-15T12:26:14;6.70;;;2.78;;
45049;SDS011;61798;48.048;-1.928;2024-01-15T12:28:20;8.20;;;3.60;;